Airfield :
LOGIN :

Register | Disclaimer

   EN    FR    IT 

 










Legend :    VFR   Marginal VFR   IFR   Intensive IFR   Very Intensive IFR
Visi :
Ceiling :
>= 8 km
>= 3000ft
5 to 8 km
1000 to 3000 ft
1500m to 5 km
500 to 1000 ft
800 to 1500m
200 to 500 ft
< 800m
< 200 ft
Symbols :   Thunderstorms  Fog  Heavy snow  Heavy precipitations  Wind > 20 kt
SIGMETs :     Misc.  Thunderstorms  Icing  Turbulence  Mountain Waves  Volcanic Ashes






- Airport Elevation : 157 ft
- IATA code : LIL


LFQQ - Lille Lesquin

CURRENT METAR :
  • 021730Z AUTO 20005KT 170V230 CAVOK 25/09 Q1017 BECMG 33010KT

EXPIRED METARs :
  • 021700Z AUTO 19006KT 150V210 CAVOK 24/10 Q1018 BECMG 33010KT
  • 021630Z AUTO 18005KT 150V210 CAVOK 25/10 Q1018 BECMG 33010KT
  • 021600Z AUTO 22009KT CAVOK 25/09 Q1018 BECMG 33010KT
  • 021530Z AUTO 17008KT 140V210 CAVOK 25/10 Q1018 BECMG 33010KT
  • 021500Z AUTO 22006KT 150V280 CAVOK 24/09 Q1019 NOSIG

TAF TAF LFQQ
Valid from the 02 at 18:00 until the 04 at 00:00 UTC


021700Z 0218/0324 VRB05KT CAVOK
TEMPO 0218/0221 31010KT
BECMG 0308/0310 28010KT
BECMG 0321/0323 VRB03KT
ATIS : +33 3 20 16 19 54



MET'MAP, your aeronautical weather chart ! - Copyright ORBIFLY December 2007 - Disclaimer

ORBIFLY MET'MAP TEAM :

Programming & Development : Alexandra Zaïnal
Original concept : Baudouin d'Aumeries
Technical & hardware support : Manuel Goepfert
Assistance : Marc-Olivier Méhu




SOURCES & CREDITS :

   NOAA